sensor_id;sensor_type;location;lat;lon;timestamp;pressure;altitude;pressure_sealevel;temperature;humidity
16461;BME280;8341;42.048;24.650;2023-03-13T00:01:48;97496.34;;;5.37;52.24
16461;BME280;8341;42.048;24.650;2023-03-13T00:04:15;97494.09;;;5.48;52.79
16461;BME280;8341;42.048;24.650;2023-03-13T00:06:43;97499.41;;;5.52;51.43
16461;BME280;8341;42.048;24.650;2023-03-13T00:09:12;97493.34;;;5.60;51.82
16461;BME280;8341;42.048;24.650;2023-03-13T00:11:39;97495.09;;;5.67;50.92
16461;BME280;8341;42.048;24.650;2023-03-13T00:14:07;97500.91;;;5.65;49.21
16461;BME280;8341;42.048;24.650;2023-03-13T00:16:34;97502.75;;;5.68;50.30
16461;BME280;8341;42.048;24.650;2023-03-13T00:19:02;97501.25;;;5.80;50.88
16461;BME280;8341;42.048;24.650;2023-03-13T00:21:29;97503.63;;;5.78;52.36
16461;BME280;8341;42.048;24.650;2023-03-13T00:24:00;97500.81;;;5.82;50.30
16461;BME280;8341;42.048;24.650;2023-03-13T00:26:27;97510.00;;;5.84;51.86
16461;BME280;8341;42.048;24.650;2023-03-13T00:28:54;97501.47;;;5.86;51.55
16461;BME280;8341;42.048;24.650;2023-03-13T00:31:22;97498.34;;;5.87;51.89
16461;BME280;8341;42.048;24.650;2023-03-13T00:33:51;97495.94;;;5.77;50.86
16461;BME280;8341;42.048;24.650;2023-03-13T00:36:19;97487.72;;;5.80;51.40
16461;BME280;8341;42.048;24.650;2023-03-13T00:38:46;97487.81;;;5.77;51.61
16461;BME280;8341;42.048;24.650;2023-03-13T00:41:16;97487.19;;;5.73;52.73
16461;BME280;8341;42.048;24.650;2023-03-13T00:43:44;97488.47;;;5.55;50.93
16461;BME280;8341;42.048;24.650;2023-03-13T00:46:13;97494.41;;;5.50;51.36
16461;BME280;8341;42.048;24.650;2023-03-13T00:48:40;97488.91;;;5.41;51.39
16461;BME280;8341;42.048;24.650;2023-03-13T00:51:08;97498.09;;;5.44;52.69
16461;BME280;8341;42.048;24.650;2023-03-13T00:53:35;97495.94;;;5.39;52.40
16461;BME280;8341;42.048;24.650;2023-03-13T00:56:05;97488.88;;;5.29;51.40
16461;BME280;8341;42.048;24.650;2023-03-13T00:58:35;97494.69;;;5.15;52.31
16461;BME280;8341;42.048;24.650;2023-03-13T01:01:06;97497.28;;;5.18;53.20
16461;BME280;8341;42.048;24.650;2023-03-13T01:03:34;97485.47;;;4.99;53.06
16461;BME280;8341;42.048;24.650;2023-03-13T01:06:02;97494.25;;;4.75;52.68
16461;BME280;8341;42.048;24.650;2023-03-13T01:08:30;97492.22;;;4.79;53.56
16461;BME280;8341;42.048;24.650;2023-03-13T01:10:57;97491.56;;;4.75;53.89
16461;BME280;8341;42.048;24.650;2023-03-13T01:13:24;97492.22;;;4.79;54.14
16461;BME280;8341;42.048;24.650;2023-03-13T01:15:52;97490.13;;;4.70;54.68
16461;BME280;8341;42.048;24.650;2023-03-13T01:18:19;97493.09;;;4.60;55.34
16461;BME280;8341;42.048;24.650;2023-03-13T01:20:46;97487.94;;;4.65;55.19
16461;BME280;8341;42.048;24.650;2023-03-13T01:23:13;97496.47;;;4.64;54.68
16461;BME280;8341;42.048;24.650;2023-03-13T01:25:40;97492.94;;;4.67;53.71
16461;BME280;8341;42.048;24.650;2023-03-13T01:28:06;97489.88;;;4.36;53.56
16461;BME280;8341;42.048;24.650;2023-03-13T01:30:33;97501.59;;;4.29;53.61
16461;BME280;8341;42.048;24.650;2023-03-13T01:33:01;97510.53;;;4.26;54.20
16461;BME280;8341;42.048;24.650;2023-03-13T01:35:28;97501.59;;;4.29;55.33
16461;BME280;8341;42.048;24.650;2023-03-13T01:37:55;97508.06;;;4.32;56.51
16461;BME280;8341;42.048;24.650;2023-03-13T01:40:22;97507.91;;;4.39;56.99
16461;BME280;8341;42.048;24.650;2023-03-13T01:42:50;97511.72;;;4.41;56.29
16461;BME280;8341;42.048;24.650;2023-03-13T01:46:01;97513.13;;;4.46;56.49
16461;BME280;8341;42.048;24.650;2023-03-13T01:48:34;97514.28;;;4.61;58.53
16461;BME280;8341;42.048;24.650;2023-03-13T01:51:04;97516.56;;;4.63;56.96
16461;BME280;8341;42.048;24.650;2023-03-13T01:53:33;97514.00;;;4.72;57.67
16461;BME280;8341;42.048;24.650;2023-03-13T01:56:05;97516.19;;;4.77;59.38
16461;BME280;8341;42.048;24.650;2023-03-13T01:58:33;97520.31;;;4.81;56.01
16461;BME280;8341;42.048;24.650;2023-03-13T02:01:01;97521.97;;;4.91;56.58
16461;BME280;8341;42.048;24.650;2023-03-13T02:03:30;97525.09;;;4.90;54.62
16461;BME280;8341;42.048;24.650;2023-03-13T02:05:58;97526.44;;;4.98;55.86
16461;BME280;8341;42.048;24.650;2023-03-13T02:08:29;97529.56;;;4.96;55.18
16461;BME280;8341;42.048;24.650;2023-03-13T02:11:03;97530.31;;;4.97;55.88
16461;BME280;8341;42.048;24.650;2023-03-13T02:13:31;97531.41;;;4.99;55.62
16461;BME280;8341;42.048;24.650;2023-03-13T02:15:58;97533.13;;;5.06;54.42
16461;BME280;8341;42.048;24.650;2023-03-13T02:18:25;97540.16;;;5.03;53.35
16461;BME280;8341;42.048;24.650;2023-03-13T02:20:59;97546.09;;;4.98;54.18
16461;BME280;8341;42.048;24.650;2023-03-13T02:23:31;97555.34;;;4.85;54.13
16461;BME280;8341;42.048;24.650;2023-03-13T02:26:02;97549.91;;;4.56;54.37
16461;BME280;8341;42.048;24.650;2023-03-13T02:28:30;97546.97;;;4.51;55.14
16461;BME280;8341;42.048;24.650;2023-03-13T02:30:59;97557.75;;;4.51;56.03
16461;BME280;8341;42.048;24.650;2023-03-13T02:33:28;97559.03;;;4.46;57.55
16461;BME280;8341;42.048;24.650;2023-03-13T02:35:57;97557.00;;;4.34;55.52
16461;BME280;8341;42.048;24.650;2023-03-13T02:38:26;97559.28;;;4.35;56.39
16461;BME280;8341;42.048;24.650;2023-03-13T02:40:55;97563.53;;;4.36;56.10
16461;BME280;8341;42.048;24.650;2023-03-13T02:43:28;97567.22;;;4.42;57.05
16461;BME280;8341;42.048;24.650;2023-03-13T02:46:04;97575.31;;;4.42;55.31
16461;BME280;8341;42.048;24.650;2023-03-13T02:48:33;97582.06;;;4.34;54.88
16461;BME280;8341;42.048;24.650;2023-03-13T02:51:02;97581.56;;;4.39;54.86
16461;BME280;8341;42.048;24.650;2023-03-13T02:53:29;97584.19;;;4.43;54.71
16461;BME280;8341;42.048;24.650;2023-03-13T02:55:57;97592.94;;;4.47;55.78
16461;BME280;8341;42.048;24.650;2023-03-13T02:58:25;97594.72;;;4.21;55.18
16461;BME280;8341;42.048;24.650;2023-03-13T03:00:52;97606.53;;;4.27;55.89
16461;BME280;8341;42.048;24.650;2023-03-13T03:03:19;97605.69;;;4.14;56.75
16461;BME280;8341;42.048;24.650;2023-03-13T03:05:46;97599.44;;;4.17;56.10
16461;BME280;8341;42.048;24.650;2023-03-13T03:08:12;97596.25;;;4.22;56.03
16461;BME280;8341;42.048;24.650;2023-03-13T03:10:39;97606.38;;;4.18;57.99
16461;BME280;8341;42.048;24.650;2023-03-13T03:13:06;97603.06;;;4.27;58.49
16461;BME280;8341;42.048;24.650;2023-03-13T03:15:34;97612.78;;;4.40;58.22
16461;BME280;8341;42.048;24.650;2023-03-13T03:18:01;97613.31;;;4.52;58.18
16461;BME280;8341;42.048;24.650;2023-03-13T03:20:28;97617.00;;;4.58;57.77
16461;BME280;8341;42.048;24.650;2023-03-13T03:22:54;97611.19;;;4.59;57.38
16461;BME280;8341;42.048;24.650;2023-03-13T03:25:21;97615.75;;;4.62;56.19
16461;BME280;8341;42.048;24.650;2023-03-13T03:27:48;97618.16;;;4.73;55.11
16461;BME280;8341;42.048;24.650;2023-03-13T03:30:15;97630.06;;;4.75;55.25
16461;BME280;8341;42.048;24.650;2023-03-13T03:32:43;97628.31;;;4.69;55.16
16461;BME280;8341;42.048;24.650;2023-03-13T03:35:10;97634.56;;;4.66;54.00
16461;BME280;8341;42.048;24.650;2023-03-13T03:37:36;97645.53;;;4.59;54.30
16461;BME280;8341;42.048;24.650;2023-03-13T03:40:04;97645.00;;;4.48;55.59
16461;BME280;8341;42.048;24.650;2023-03-13T03:42:31;97647.38;;;4.46;54.57
16461;BME280;8341;42.048;24.650;2023-03-13T03:44:58;97660.38;;;4.51;55.32
16461;BME280;8341;42.048;24.650;2023-03-13T03:47:25;97662.69;;;4.16;57.65
16461;BME280;8341;42.048;24.650;2023-03-13T03:49:53;97656.56;;;4.16;56.32
16461;BME280;8341;42.048;24.650;2023-03-13T03:52:20;97665.00;;;3.98;56.24
16461;BME280;8341;42.048;24.650;2023-03-13T03:54:46;97670.72;;;3.84;57.46
16461;BME280;8341;42.048;24.650;2023-03-13T03:57:13;97669.53;;;3.85;57.42
16461;BME280;8341;42.048;24.650;2023-03-13T03:59:40;97663.59;;;3.74;56.33
16461;BME280;8341;42.048;24.650;2023-03-13T04:02:06;97668.84;;;3.61;56.90
16461;BME280;8341;42.048;24.650;2023-03-13T04:04:34;97679.94;;;3.67;57.07
16461;BME280;8341;42.048;24.650;2023-03-13T04:07:02;97678.19;;;3.76;59.14
16461;BME280;8341;42.048;24.650;2023-03-13T04:09:29;97689.03;;;3.73;58.93
16461;BME280;8341;42.048;24.650;2023-03-13T04:11:56;97691.31;;;3.74;57.45
16461;BME280;8341;42.048;24.650;2023-03-13T04:14:22;97688.34;;;3.69;57.57
16461;BME280;8341;42.048;24.650;2023-03-13T04:16:49;97684.84;;;3.72;59.52
16461;BME280;8341;42.048;24.650;2023-03-13T04:19:16;97684.63;;;3.83;58.95
16461;BME280;8341;42.048;24.650;2023-03-13T04:21:43;97694.75;;;3.75;58.90
16461;BME280;8341;42.048;24.650;2023-03-13T04:24:11;97695.63;;;3.72;57.39
16461;BME280;8341;42.048;24.650;2023-03-13T04:26:38;97690.91;;;3.76;57.01
16461;BME280;8341;42.048;24.650;2023-03-13T04:29:04;97696.84;;;3.87;57.60
16461;BME280;8341;42.048;24.650;2023-03-13T04:31:31;97702.03;;;3.78;56.98
16461;BME280;8341;42.048;24.650;2023-03-13T04:33:58;97704.34;;;3.79;56.82
16461;BME280;8341;42.048;24.650;2023-03-13T04:36:25;97705.16;;;3.76;57.65
16461;BME280;8341;42.048;24.650;2023-03-13T04:38:52;97707.50;;;3.94;60.15
16461;BME280;8341;42.048;24.650;2023-03-13T04:41:20;97729.03;;;3.98;56.41
16461;BME280;8341;42.048;24.650;2023-03-13T04:43:47;97729.69;;;4.02;57.18
16461;BME280;8341;42.048;24.650;2023-03-13T04:46:13;97728.94;;;4.01;57.70
16461;BME280;8341;42.048;24.650;2023-03-13T04:48:40;97732.41;;;4.02;56.84
16461;BME280;8341;42.048;24.650;2023-03-13T04:51:07;97740.00;;;4.07;57.66
16461;BME280;8341;42.048;24.650;2023-03-13T04:53:34;97734.13;;;3.72;57.40
16461;BME280;8341;42.048;24.650;2023-03-13T04:56:00;97736.75;;;3.76;56.99
16461;BME280;8341;42.048;24.650;2023-03-13T04:58:28;97740.41;;;3.66;57.17
16461;BME280;8341;42.048;24.650;2023-03-13T05:00:55;97743.50;;;3.45;57.29
16461;BME280;8341;42.048;24.650;2023-03-13T05:03:22;97748.06;;;3.48;57.47
16461;BME280;8341;42.048;24.650;2023-03-13T05:05:49;97750.47;;;3.42;57.57
16461;BME280;8341;42.048;24.650;2023-03-13T05:08:16;97755.09;;;3.42;58.31
16461;BME280;8341;42.048;24.650;2023-03-13T05:10:43;97756.75;;;3.36;57.87
16461;BME280;8341;42.048;24.650;2023-03-13T05:13:09;97758.63;;;3.39;57.87
16461;BME280;8341;42.048;24.650;2023-03-13T05:15:38;97756.41;;;3.34;58.28
16461;BME280;8341;42.048;24.650;2023-03-13T05:18:04;97750.56;;;3.39;58.19
16461;BME280;8341;42.048;24.650;2023-03-13T05:20:31;97763.91;;;3.46;58.47
16461;BME280;8341;42.048;24.650;2023-03-13T05:22:58;97761.88;;;3.50;58.01
16461;BME280;8341;42.048;24.650;2023-03-13T05:25:25;97762.72;;;3.47;58.27
16461;BME280;8341;42.048;24.650;2023-03-13T05:27:51;97766.00;;;3.35;58.91
16461;BME280;8341;42.048;24.650;2023-03-13T05:30:18;97775.03;;;3.48;59.23
16461;BME280;8341;42.048;24.650;2023-03-13T05:32:46;97781.69;;;3.63;58.26
16461;BME280;8341;42.048;24.650;2023-03-13T05:35:13;97769.56;;;3.74;60.32
16461;BME280;8341;42.048;24.650;2023-03-13T05:37:40;97778.81;;;3.93;59.49
16461;BME280;8341;42.048;24.650;2023-03-13T05:40:09;97782.13;;;4.01;57.54
16461;BME280;8341;42.048;24.650;2023-03-13T05:42:36;97791.72;;;4.05;57.61
16461;BME280;8341;42.048;24.650;2023-03-13T05:45:03;97801.72;;;4.24;59.43
16461;BME280;8341;42.048;24.650;2023-03-13T05:47:29;97794.66;;;4.30;59.15
16461;BME280;8341;42.048;24.650;2023-03-13T05:49:58;97800.19;;;4.43;58.93
16461;BME280;8341;42.048;24.650;2023-03-13T05:52:24;97795.47;;;4.47;58.77
16461;BME280;8341;42.048;24.650;2023-03-13T05:54:51;97798.44;;;4.53;56.72
16461;BME280;8341;42.048;24.650;2023-03-13T05:57:18;97799.31;;;4.66;56.73
16461;BME280;8341;42.048;24.650;2023-03-13T05:59:45;97805.66;;;4.59;57.97
16461;BME280;8341;42.048;24.650;2023-03-13T06:02:12;97816.47;;;4.59;55.64
16461;BME280;8341;42.048;24.650;2023-03-13T06:04:39;97815.69;;;4.59;55.31
16461;BME280;8341;42.048;24.650;2023-03-13T06:07:07;97809.84;;;4.60;55.13
16461;BME280;8341;42.048;24.650;2023-03-13T06:09:34;97814.69;;;4.69;54.59
16461;BME280;8341;42.048;24.650;2023-03-13T06:12:01;97813.88;;;4.88;55.68
16461;BME280;8341;42.048;24.650;2023-03-13T06:14:27;97813.91;;;5.04;54.80
16461;BME280;8341;42.048;24.650;2023-03-13T06:16:54;97815.69;;;5.27;55.08
16461;BME280;8341;42.048;24.650;2023-03-13T06:19:21;97827.53;;;5.49;53.86
16461;BME280;8341;42.048;24.650;2023-03-13T06:21:48;97828.28;;;5.65;52.09
16461;BME280;8341;42.048;24.650;2023-03-13T06:24:17;97820.31;;;5.75;52.85
16461;BME280;8341;42.048;24.650;2023-03-13T06:26:44;97823.00;;;5.91;50.72
16461;BME280;8341;42.048;24.650;2023-03-13T06:29:13;97822.91;;;6.10;52.66
16461;BME280;8341;42.048;24.650;2023-03-13T06:31:40;97831.06;;;6.23;49.79
16461;BME280;8341;42.048;24.650;2023-03-13T06:34:07;97823.28;;;6.38;49.69
16461;BME280;8341;42.048;24.650;2023-03-13T06:36:34;97836.88;;;6.50;50.31
16461;BME280;8341;42.048;24.650;2023-03-13T06:39:01;97828.75;;;6.63;48.62
16461;BME280;8341;42.048;24.650;2023-03-13T06:41:29;97833.47;;;6.75;47.80
16461;BME280;8341;42.048;24.650;2023-03-13T06:43:56;97827.38;;;6.83;48.53
16461;BME280;8341;42.048;24.650;2023-03-13T06:46:23;97827.53;;;6.92;48.05
16461;BME280;8341;42.048;24.650;2023-03-13T06:48:50;97819.22;;;6.17;50.08
16461;BME280;8341;42.048;24.650;2023-03-13T06:51:19;97833.28;;;6.12;49.05
16461;BME280;8341;42.048;24.650;2023-03-13T06:53:47;97830.81;;;5.89;51.65
16461;BME280;8341;42.048;24.650;2023-03-13T06:56:14;97822.72;;;5.73;52.86
16461;BME280;8341;42.048;24.650;2023-03-13T06:58:45;97838.44;;;5.45;53.24
16461;BME280;8341;42.048;24.650;2023-03-13T07:01:13;97830.16;;;5.36;52.93
16461;BME280;8341;42.048;24.650;2023-03-13T07:03:40;97831.09;;;5.46;52.90
16461;BME280;8341;42.048;24.650;2023-03-13T07:06:08;97824.72;;;5.68;52.17
16461;BME280;8341;42.048;24.650;2023-03-13T07:08:35;97816.94;;;5.87;51.07
16461;BME280;8341;42.048;24.650;2023-03-13T07:11:04;97818.47;;;5.88;51.80
16461;BME280;8341;42.048;24.650;2023-03-13T07:13:31;97806.25;;;5.96;50.65
16461;BME280;8341;42.048;24.650;2023-03-13T07:16:00;97823.13;;;6.16;50.24
16461;BME280;8341;42.048;24.650;2023-03-13T07:18:29;97815.66;;;6.20;48.40
16461;BME280;8341;42.048;24.650;2023-03-13T07:20:58;97819.97;;;6.46;48.02
16461;BME280;8341;42.048;24.650;2023-03-13T07:23:26;97822.47;;;6.53;45.52
16461;BME280;8341;42.048;24.650;2023-03-13T07:25:54;97824.44;;;6.65;46.05
16461;BME280;8341;42.048;24.650;2023-03-13T07:28:22;97821.09;;;6.61;46.33
16461;BME280;8341;42.048;24.650;2023-03-13T07:30:49;97821.66;;;6.81;45.73
16461;BME280;8341;42.048;24.650;2023-03-13T07:33:18;97830.56;;;6.94;46.99
16461;BME280;8341;42.048;24.650;2023-03-13T07:35:48;97823.94;;;6.96;46.74
16461;BME280;8341;42.048;24.650;2023-03-13T07:38:15;97816.34;;;7.16;47.00
16461;BME280;8341;42.048;24.650;2023-03-13T07:40:47;97818.38;;;7.24;47.24
16461;BME280;8341;42.048;24.650;2023-03-13T07:43:14;97816.63;;;7.43;45.70
16461;BME280;8341;42.048;24.650;2023-03-13T07:45:49;97822.38;;;7.45;45.02
16461;BME280;8341;42.048;24.650;2023-03-13T07:48:18;97823.22;;;7.67;45.85
16461;BME280;8341;42.048;24.650;2023-03-13T07:50:45;97818.19;;;7.78;44.32
16461;BME280;8341;42.048;24.650;2023-03-13T07:53:12;97822.13;;;7.99;43.31
16461;BME280;8341;42.048;24.650;2023-03-13T07:55:51;97825.06;;;8.26;43.87
16461;BME280;8341;42.048;24.650;2023-03-13T07:58:18;97823.53;;;8.25;44.00
16461;BME280;8341;42.048;24.650;2023-03-13T08:00:45;97820.28;;;8.52;42.97
16461;BME280;8341;42.048;24.650;2023-03-13T08:03:11;97827.63;;;8.64;42.82
16461;BME280;8341;42.048;24.650;2023-03-13T08:05:40;97831.78;;;8.56;42.11
16461;BME280;8341;42.048;24.650;2023-03-13T08:08:06;97818.38;;;8.61;41.93
16461;BME280;8341;42.048;24.650;2023-03-13T08:10:33;97823.50;;;8.59;41.70
16461;BME280;8341;42.048;24.650;2023-03-13T08:13:00;97818.00;;;8.50;42.65
16461;BME280;8341;42.048;24.650;2023-03-13T08:15:27;97818.03;;;8.29;42.56
16461;BME280;8341;42.048;24.650;2023-03-13T08:17:55;97811.75;;;8.41;42.71
16461;BME280;8341;42.048;24.650;2023-03-13T08:20:22;97804.91;;;8.14;42.91
16461;BME280;8341;42.048;24.650;2023-03-13T08:22:50;97811.84;;;8.50;44.97
16461;BME280;8341;42.048;24.650;2023-03-13T08:25:17;97802.28;;;8.76;42.95
16461;BME280;8341;42.048;24.650;2023-03-13T08:27:44;97797.81;;;8.91;41.99
16461;BME280;8341;42.048;24.650;2023-03-13T08:30:11;97799.16;;;8.56;41.60
16461;BME280;8341;42.048;24.650;2023-03-13T08:32:39;97800.81;;;8.53;41.49
16461;BME280;8341;42.048;24.650;2023-03-13T08:35:06;97797.13;;;8.69;41.05
16461;BME280;8341;42.048;24.650;2023-03-13T08:37:33;97790.91;;;8.99;41.43
16461;BME280;8341;42.048;24.650;2023-03-13T08:40:02;97789.31;;;9.20;41.51
16461;BME280;8341;42.048;24.650;2023-03-13T08:42:35;97784.81;;;9.26;41.75
16461;BME280;8341;42.048;24.650;2023-03-13T08:45:02;97790.72;;;9.24;40.96
16461;BME280;8341;42.048;24.650;2023-03-13T08:47:29;97793.75;;;9.35;40.44
16461;BME280;8341;42.048;24.650;2023-03-13T08:49:56;97797.28;;;9.05;42.31
16461;BME280;8341;42.048;24.650;2023-03-13T08:52:23;97797.31;;;9.14;41.10
16461;BME280;8341;42.048;24.650;2023-03-13T08:54:49;97799.78;;;9.30;41.66
16461;BME280;8341;42.048;24.650;2023-03-13T08:57:18;97803.88;;;9.35;42.97
16461;BME280;8341;42.048;24.650;2023-03-13T08:59:44;97799.88;;;9.58;42.69
16461;BME280;8341;42.048;24.650;2023-03-13T09:02:11;97803.50;;;9.55;41.04
16461;BME280;8341;42.048;24.650;2023-03-13T09:04:44;97809.13;;;9.78;39.52
16461;BME280;8341;42.048;24.650;2023-03-13T09:07:11;97815.91;;;9.65;39.57
16461;BME280;8341;42.048;24.650;2023-03-13T09:09:38;97814.38;;;9.64;39.92
16461;BME280;8341;42.048;24.650;2023-03-13T09:12:05;97807.72;;;9.65;40.51
16461;BME280;8341;42.048;24.650;2023-03-13T09:14:33;97813.28;;;9.43;40.21
16461;BME280;8341;42.048;24.650;2023-03-13T09:17:00;97815.72;;;9.50;39.68
16461;BME280;8341;42.048;24.650;2023-03-13T09:19:28;97805.56;;;9.51;39.13
16461;BME280;8341;42.048;24.650;2023-03-13T09:21:55;97808.03;;;9.58;39.08
16461;BME280;8341;42.048;24.650;2023-03-13T09:24:22;97811.97;;;9.66;39.60
16461;BME280;8341;42.048;24.650;2023-03-13T09:26:50;97804.38;;;9.61;39.93
16461;BME280;8341;42.048;24.650;2023-03-13T09:29:17;97799.84;;;9.49;40.34
16461;BME280;8341;42.048;24.650;2023-03-13T09:31:45;97801.66;;;9.61;39.79
16461;BME280;8341;42.048;24.650;2023-03-13T09:34:12;97804.03;;;9.31;39.28
16461;BME280;8341;42.048;24.650;2023-03-13T09:36:39;97795.94;;;9.68;39.62
16461;BME280;8341;42.048;24.650;2023-03-13T09:39:06;97796.09;;;9.73;40.53
16461;BME280;8341;42.048;24.650;2023-03-13T09:41:37;97807.44;;;9.63;39.38
16461;BME280;8341;42.048;24.650;2023-03-13T09:44:09;97805.00;;;9.65;39.35
16461;BME280;8341;42.048;24.650;2023-03-13T09:46:42;97801.22;;;9.71;39.71
16461;BME280;8341;42.048;24.650;2023-03-13T09:49:22;97800.22;;;9.96;39.86
16461;BME280;8341;42.048;24.650;2023-03-13T09:51:58;97790.03;;;9.96;39.43
16461;BME280;8341;42.048;24.650;2023-03-13T09:54:32;97775.38;;;10.03;38.70
16461;BME280;8341;42.048;24.650;2023-03-13T09:57:06;97771.44;;;10.22;40.73
16461;BME280;8341;42.048;24.650;2023-03-13T09:59:42;97774.16;;;9.86;38.84
16461;BME280;8341;42.048;24.650;2023-03-13T10:02:19;97759.00;;;10.30;40.39
16461;BME280;8341;42.048;24.650;2023-03-13T10:04:52;97754.38;;;10.63;38.81
16461;BME280;8341;42.048;24.650;2023-03-13T10:07:20;97763.25;;;10.82;37.44
16461;BME280;8341;42.048;24.650;2023-03-13T10:09:47;97766.97;;;11.03;35.68
16461;BME280;8341;42.048;24.650;2023-03-13T10:12:17;97763.34;;;11.29;36.74
16461;BME280;8341;42.048;24.650;2023-03-13T10:14:53;97760.16;;;11.55;37.60
16461;BME280;8341;42.048;24.650;2023-03-13T10:17:30;97763.06;;;11.51;36.07
16461;BME280;8341;42.048;24.650;2023-03-13T10:20:00;97752.72;;;11.55;34.24
16461;BME280;8341;42.048;24.650;2023-03-13T10:22:33;97750.97;;;11.43;34.28
16461;BME280;8341;42.048;24.650;2023-03-13T10:25:04;97750.84;;;11.14;34.96
16461;BME280;8341;42.048;24.650;2023-03-13T10:27:42;97740.78;;;11.20;37.86
16461;BME280;8341;42.048;24.650;2023-03-13T10:30:20;97742.66;;;11.14;35.57
16461;BME280;8341;42.048;24.650;2023-03-13T10:32:48;97740.22;;;11.16;33.44
16461;BME280;8341;42.048;24.650;2023-03-13T10:35:22;97746.91;;;11.62;34.91
16461;BME280;8341;42.048;24.650;2023-03-13T10:37:49;97739.53;;;11.30;32.64
16461;BME280;8341;42.048;24.650;2023-03-13T10:40:27;97744.53;;;11.55;34.77
16461;BME280;8341;42.048;24.650;2023-03-13T10:43:01;97741.84;;;11.93;32.41
16461;BME280;8341;42.048;24.650;2023-03-13T10:45:32;97742.06;;;12.19;31.81
16461;BME280;8341;42.048;24.650;2023-03-13T10:48:05;97741.69;;;12.12;31.91
16461;BME280;8341;42.048;24.650;2023-03-13T10:50:42;97732.25;;;11.74;31.92
16461;BME280;8341;42.048;24.650;2023-03-13T10:53:22;97727.69;;;11.80;32.70
16461;BME280;8341;42.048;24.650;2023-03-13T10:55:51;97724.06;;;12.27;32.74
16461;BME280;8341;42.048;24.650;2023-03-13T10:58:21;97715.16;;;11.88;31.86
16461;BME280;8341;42.048;24.650;2023-03-13T11:00:49;97716.09;;;11.62;32.40
16461;BME280;8341;42.048;24.650;2023-03-13T11:03:17;97707.78;;;11.94;30.39
16461;BME280;8341;42.048;24.650;2023-03-13T11:05:56;97706.09;;;11.97;32.30
16461;BME280;8341;42.048;24.650;2023-03-13T11:08:24;97703.22;;;11.39;30.34
16461;BME280;8341;42.048;24.650;2023-03-13T11:10:56;97708.66;;;11.86;29.95
16461;BME280;8341;42.048;24.650;2023-03-13T11:13:42;97708.03;;;12.35;31.80
16461;BME280;8341;42.048;24.650;2023-03-13T11:16:18;97699.72;;;12.15;29.34
16461;BME280;8341;42.048;24.650;2023-03-13T11:21:44;97684.34;;;12.03;30.39
16461;BME280;8341;42.048;24.650;2023-03-13T11:24:20;97685.66;;;12.07;29.56
16461;BME280;8341;42.048;24.650;2023-03-13T11:26:55;97679.59;;;11.74;29.87
16461;BME280;8341;42.048;24.650;2023-03-13T11:29:34;97685.44;;;11.43;28.89
16461;BME280;8341;42.048;24.650;2023-03-13T11:32:14;97689.78;;;11.73;30.78
16461;BME280;8341;42.048;24.650;2023-03-13T11:34:48;97680.69;;;11.91;29.58
16461;BME280;8341;42.048;24.650;2023-03-13T11:37:19;97687.28;;;11.99;30.33
16461;BME280;8341;42.048;24.650;2023-03-13T11:39:57;97677.00;;;12.09;29.67
16461;BME280;8341;42.048;24.650;2023-03-13T11:42:51;97679.91;;;12.49;31.61
16461;BME280;8341;42.048;24.650;2023-03-13T11:45:47;97670.56;;;12.55;28.85
16461;BME280;8341;42.048;24.650;2023-03-13T11:48:25;97660.03;;;12.83;28.86
16461;BME280;8341;42.048;24.650;2023-03-13T11:51:05;97663.25;;;13.02;29.91
16461;BME280;8341;42.048;24.650;2023-03-13T11:53:55;97656.81;;;13.20;29.95
16461;BME280;8341;42.048;24.650;2023-03-13T11:56:28;97640.09;;;13.38;29.81
16461;BME280;8341;42.048;24.650;2023-03-13T12:01:50;97634.59;;;13.17;29.48
16461;BME280;8341;42.048;24.650;2023-03-13T12:04:21;97641.31;;;13.37;28.99
16461;BME280;8341;42.048;24.650;2023-03-13T12:06:54;97633.63;;;13.61;29.33
16461;BME280;8341;42.048;24.650;2023-03-13T12:09:28;97625.41;;;13.61;28.50
16461;BME280;8341;42.048;24.650;2023-03-13T12:12:00;97627.59;;;13.57;26.70
16461;BME280;8341;42.048;24.650;2023-03-13T12:14:32;97627.75;;;13.28;26.42
16461;BME280;8341;42.048;24.650;2023-03-13T12:17:04;97609.13;;;13.32;28.28
16461;BME280;8341;42.048;24.650;2023-03-13T12:19:37;97617.66;;;12.79;27.91
16461;BME280;8341;42.048;24.650;2023-03-13T12:22:12;97632.31;;;12.61;27.79
16461;BME280;8341;42.048;24.650;2023-03-13T12:24:47;97603.59;;;12.71;28.02
16461;BME280;8341;42.048;24.650;2023-03-13T12:27:18;97616.59;;;12.76;27.94
16461;BME280;8341;42.048;24.650;2023-03-13T12:29:50;97615.03;;;12.70;28.72
16461;BME280;8341;42.048;24.650;2023-03-13T12:32:24;97612.50;;;12.66;29.86
16461;BME280;8341;42.048;24.650;2023-03-13T12:34:59;97615.38;;;12.57;28.38
16461;BME280;8341;42.048;24.650;2023-03-13T12:37:37;97614.66;;;12.42;28.54
16461;BME280;8341;42.048;24.650;2023-03-13T12:40:15;97613.34;;;12.37;29.59
16461;BME280;8341;42.048;24.650;2023-03-13T12:42:50;97611.28;;;12.67;30.39
16461;BME280;8341;42.048;24.650;2023-03-13T12:45:20;97610.47;;;12.46;27.60
16461;BME280;8341;42.048;24.650;2023-03-13T12:48:18;97616.75;;;12.67;28.77
16461;BME280;8341;42.048;24.650;2023-03-13T12:51:00;97612.28;;;13.04;31.48
16461;BME280;8341;42.048;24.650;2023-03-13T12:53:49;97624.22;;;13.22;30.08
16461;BME280;8341;42.048;24.650;2023-03-13T12:56:35;97617.94;;;13.41;29.85
16461;BME280;8341;42.048;24.650;2023-03-13T12:59:04;97610.06;;;13.49;27.86
16461;BME280;8341;42.048;24.650;2023-03-13T13:01:38;97614.63;;;13.11;26.88
16461;BME280;8341;42.048;24.650;2023-03-13T13:04:10;97613.69;;;13.00;27.01
16461;BME280;8341;42.048;24.650;2023-03-13T13:06:53;97619.91;;;12.80;27.77
16461;BME280;8341;42.048;24.650;2023-03-13T13:09:22;97616.59;;;12.76;28.10
16461;BME280;8341;42.048;24.650;2023-03-13T13:11:52;97616.06;;;12.72;27.06
16461;BME280;8341;42.048;24.650;2023-03-13T13:15:04;97614.81;;;12.53;27.80
16461;BME280;8341;42.048;24.650;2023-03-13T13:17:54;97608.88;;;12.75;28.58
16461;BME280;8341;42.048;24.650;2023-03-13T13:23:33;97608.41;;;12.76;26.65
16461;BME280;8341;42.048;24.650;2023-03-13T13:32:44;97597.94;;;12.75;26.32
16461;BME280;8341;42.048;24.650;2023-03-13T13:35:30;97603.22;;;12.78;27.08
16461;BME280;8341;42.048;24.650;2023-03-13T13:38:28;97597.41;;;12.91;29.20